DLH912 KTLH-KDEN
Flight info
| Callsign | DLH912 |
|---|---|
| Flight time | 2h 52m |
| Altitude | 38000 |
| Route | SZW MGM J41 MEM RZC/N0484F400 PER GCK KIISS CLASH5 |
| Aircraft | MD11/H-SDE1E2E3FGHIJ2J3J4J5M1RWXY/LB1D1 |
Departure
| Time | 2026-04-21 20:07 |
|---|---|
| Airport | Tallahassee International Airport (KTLH) |
Arrival
| Time | 2026-04-21 23:00 |
|---|---|
| Airport | Denver International Airport (KDEN) |
| Time | Latitude | Longitude | Altitude | Speed | Heading |
|---|---|---|---|---|---|
| 2026-04-21 20:01 | 30.39420 | -84.34647 | 76 ft | 0 kts | 12° |
| 2026-04-21 20:03 | 30.39423 | -84.34649 | 76 ft | 0 kts | 356° |
| 2026-04-21 20:04 | 30.39433 | -84.34661 | 61 ft | 4 kts | 305° |
| 2026-04-21 20:04 | 30.39422 | -84.34731 | 74 ft | 17 kts | 258° |
| 2026-04-21 20:04 | 30.39412 | -84.34934 | 72 ft | 34 kts | 269° |
| 2026-04-21 20:04 | 30.39412 | -84.35265 | 74 ft | 48 kts | 270° |
| 2026-04-21 20:05 | 30.39401 | -84.35569 | 65 ft | 13 kts | 245° |
| 2026-04-21 20:05 | 30.39345 | -84.35597 | 71 ft | 10 kts | 186° |
| 2026-04-21 20:05 | 30.39232 | -84.35599 | 72 ft | 19 kts | 181° |
| 2026-04-21 20:05 | 30.39151 | -84.35619 | 69 ft | 8 kts | 180° |
| 2026-04-21 20:06 | 30.39133 | -84.35596 | 70 ft | 7 kts | 112° |
| 2026-04-21 20:06 | 30.39133 | -84.35584 | 68 ft | 0 kts | 92° |
| 2026-04-21 20:06 | 30.39132 | -84.35550 | 73 ft | 24 kts | 92° |
| 2026-04-21 20:06 | 30.39136 | -84.34919 | 66 ft | 129 kts | 88° |
| 2026-04-21 20:07 | 30.39150 | -84.33593 | 422 ft | 182 kts | 90° |
| 2026-04-21 20:07 | 30.39313 | -84.32147 | 1444 ft | 167 kts | 70° |
| 2026-04-21 20:07 | 30.40037 | -84.31152 | 2404 ft | 164 kts | 31° |
| 2026-04-21 20:07 | 30.41154 | -84.30939 | 3125 ft | 170 kts | 351° |
| 2026-04-21 20:08 | 30.42285 | -84.31447 | 3850 ft | 185 kts | 340° |
| 2026-04-21 20:08 | 30.43596 | -84.32039 | 4551 ft | 220 kts | 341° |
| 2026-04-21 20:08 | 30.45110 | -84.32708 | 5209 ft | 245 kts | 341° |
| 2026-04-21 20:08 | 30.46762 | -84.33443 | 5854 ft | 262 kts | 341° |
| 2026-04-21 20:09 | 30.48512 | -84.34225 | 6492 ft | 273 kts | 341° |
| 2026-04-21 20:09 | 30.50301 | -84.35030 | 7132 ft | 277 kts | 340° |
| 2026-04-21 20:09 | 30.52104 | -84.35843 | 7962 ft | 280 kts | 340° |
| 2026-04-21 20:09 | 30.53938 | -84.36671 | 9074 ft | 283 kts | 340° |
| 2026-04-21 20:10 | 30.55762 | -84.37499 | 10237 ft | 286 kts | 338° |
| 2026-04-21 20:10 | 30.57589 | -84.38711 | 10636 ft | 321 kts | 323° |
| 2026-04-21 20:10 | 30.59364 | -84.40513 | 10832 ft | 358 kts | 317° |
| 2026-04-21 20:10 | 30.61158 | -84.42601 | 11853 ft | 364 kts | 315° |
| 2026-04-21 20:11 | 30.62919 | -84.44698 | 13009 ft | 368 kts | 315° |
| 2026-04-21 20:11 | 30.64737 | -84.46853 | 14128 ft | 372 kts | 315° |
| 2026-04-21 20:11 | 30.66554 | -84.48988 | 15087 ft | 375 kts | 315° |
| 2026-04-21 20:11 | 30.68404 | -84.51144 | 16038 ft | 380 kts | 315° |
| 2026-04-21 20:12 | 30.70281 | -84.53323 | 16917 ft | 384 kts | 314° |
| 2026-04-21 20:12 | 30.72190 | -84.55531 | 17769 ft | 389 kts | 314° |
| 2026-04-21 20:12 | 30.73478 | -84.57020 | 18335 ft | 392 kts | 314° |
| 2026-04-21 20:12 | 30.76076 | -84.60021 | 19345 ft | 397 kts | 314° |
| 2026-04-21 20:13 | 30.78028 | -84.62277 | 20087 ft | 399 kts | 314° |
| 2026-04-21 20:13 | 30.80017 | -84.64577 | 20833 ft | 401 kts | 313° |
| 2026-04-21 20:13 | 30.81982 | -84.66849 | 21558 ft | 404 kts | 313° |
| 2026-04-21 20:13 | 30.84004 | -84.69190 | 22340 ft | 407 kts | 313° |
| 2026-04-21 20:14 | 30.86011 | -84.71516 | 23124 ft | 409 kts | 313° |
| 2026-04-21 20:14 | 30.88025 | -84.73849 | 23896 ft | 412 kts | 312° |
| 2026-04-21 20:14 | 30.90056 | -84.76205 | 24547 ft | 416 kts | 312° |
| 2026-04-21 20:14 | 30.92130 | -84.78612 | 25213 ft | 419 kts | 312° |
| 2026-04-21 20:15 | 30.94195 | -84.81011 | 25889 ft | 423 kts | 312° |
| 2026-04-21 20:15 | 30.96275 | -84.83428 | 26557 ft | 426 kts | 312° |
| 2026-04-21 20:15 | 30.98387 | -84.85884 | 27230 ft | 430 kts | 312° |
| 2026-04-21 20:15 | 31.00514 | -84.88359 | 27880 ft | 434 kts | 312° |
| 2026-04-21 20:16 | 31.02650 | -84.90846 | 28524 ft | 437 kts | 312° |
| 2026-04-21 20:16 | 31.04801 | -84.93352 | 29176 ft | 441 kts | 312° |
| 2026-04-21 20:16 | 31.06991 | -84.95906 | 29800 ft | 445 kts | 312° |
| 2026-04-21 20:16 | 31.09182 | -84.98462 | 30380 ft | 449 kts | 312° |
| 2026-04-21 20:17 | 31.11391 | -85.01041 | 30893 ft | 451 kts | 312° |
| 2026-04-21 20:17 | 31.13621 | -85.03646 | 31404 ft | 453 kts | 312° |
| 2026-04-21 20:17 | 31.15842 | -85.06242 | 32052 ft | 450 kts | 312° |
| 2026-04-21 20:17 | 31.18056 | -85.08842 | 32752 ft | 445 kts | 312° |
| 2026-04-21 20:18 | 31.19495 | -85.10535 | 33207 ft | 443 kts | 312° |
| 2026-04-21 20:18 | 31.22373 | -85.13919 | 34083 ft | 438 kts | 312° |
| 2026-04-21 20:18 | 31.24518 | -85.16438 | 34651 ft | 434 kts | 312° |
| 2026-04-21 20:18 | 31.26643 | -85.18936 | 35099 ft | 434 kts | 312° |
| 2026-04-21 20:19 | 31.28762 | -85.21425 | 35515 ft | 433 kts | 312° |
| 2026-04-21 20:19 | 31.30887 | -85.23922 | 35927 ft | 433 kts | 312° |
| 2026-04-21 20:19 | 31.32999 | -85.26406 | 36319 ft | 432 kts | 312° |
| 2026-04-21 20:19 | 31.35106 | -85.28885 | 36721 ft | 431 kts | 312° |
| 2026-04-21 20:20 | 31.37221 | -85.31375 | 37103 ft | 431 kts | 312° |
| 2026-04-21 20:20 | 31.39348 | -85.33880 | 37488 ft | 430 kts | 312° |
| 2026-04-21 20:20 | 31.41435 | -85.36340 | 37870 ft | 429 kts | 312° |
| 2026-04-21 20:20 | 31.43549 | -85.38834 | 38208 ft | 430 kts | 312° |
| 2026-04-21 20:21 | 31.45655 | -85.41320 | 38301 ft | 431 kts | 312° |
| 2026-04-21 20:21 | 31.49887 | -85.46323 | 38307 ft | 436 kts | 312° |
| 2026-04-21 20:22 | 31.54151 | -85.51368 | 38265 ft | 436 kts | 312° |
| 2026-04-21 20:22 | 31.60547 | -85.58947 | 38260 ft | 436 kts | 312° |
| 2026-04-21 20:23 | 31.64824 | -85.64024 | 38269 ft | 436 kts | 311° |
| 2026-04-21 20:23 | 31.69058 | -85.69059 | 38278 ft | 435 kts | 311° |
| 2026-04-21 20:24 | 31.73307 | -85.74118 | 38284 ft | 436 kts | 311° |
| 2026-04-21 20:24 | 31.76859 | -85.78369 | 38296 ft | 436 kts | 311° |
| 2026-04-21 20:25 | 31.81085 | -85.83437 | 38286 ft | 436 kts | 311° |
| 2026-04-21 20:25 | 31.85328 | -85.88519 | 38304 ft | 436 kts | 311° |
| 2026-04-21 20:26 | 31.89588 | -85.93618 | 38304 ft | 436 kts | 311° |
| 2026-04-21 20:26 | 31.93822 | -85.98694 | 38306 ft | 436 kts | 311° |
| 2026-04-21 20:27 | 31.98075 | -86.03798 | 38290 ft | 436 kts | 311° |
| 2026-04-21 20:27 | 32.02335 | -86.08919 | 38286 ft | 436 kts | 311° |
| 2026-04-21 20:28 | 32.06556 | -86.13999 | 38290 ft | 436 kts | 311° |
| 2026-04-21 20:28 | 32.10821 | -86.19141 | 38291 ft | 436 kts | 311° |
| 2026-04-21 20:29 | 32.15035 | -86.24227 | 38287 ft | 436 kts | 311° |
| 2026-04-21 20:29 | 32.19345 | -86.29286 | 38292 ft | 439 kts | 316° |
| 2026-04-21 20:30 | 32.24536 | -86.33139 | 38298 ft | 448 kts | 333° |
| 2026-04-21 20:30 | 32.30543 | -86.35457 | 38296 ft | 454 kts | 339° |
| 2026-04-21 20:31 | 32.36619 | -86.37558 | 38295 ft | 454 kts | 338° |
| 2026-04-21 20:31 | 32.42587 | -86.39822 | 38295 ft | 454 kts | 336° |
| 2026-04-21 20:32 | 32.48592 | -86.42208 | 38291 ft | 454 kts | 336° |
| 2026-04-21 20:32 | 32.54562 | -86.44605 | 38291 ft | 454 kts | 336° |
| 2026-04-21 20:33 | 32.60564 | -86.47013 | 38291 ft | 453 kts | 336° |
| 2026-04-21 20:33 | 32.66534 | -86.49410 | 38288 ft | 453 kts | 336° |
| 2026-04-21 20:34 | 32.72491 | -86.51803 | 38286 ft | 452 kts | 336° |
| 2026-04-21 20:34 | 32.78437 | -86.54195 | 38284 ft | 452 kts | 336° |
| 2026-04-21 20:35 | 32.84388 | -86.56593 | 38285 ft | 452 kts | 336° |
| 2026-04-21 20:35 | 32.90315 | -86.58985 | 38289 ft | 451 kts | 336° |
| 2026-04-21 20:36 | 32.96274 | -86.61392 | 38289 ft | 450 kts | 336° |
| 2026-04-21 20:36 | 33.02198 | -86.63791 | 38292 ft | 450 kts | 336° |
| 2026-04-21 20:37 | 33.08115 | -86.66198 | 38295 ft | 450 kts | 336° |
| 2026-04-21 20:37 | 33.14043 | -86.68611 | 38295 ft | 450 kts | 336° |
| 2026-04-21 20:38 | 33.19979 | -86.71025 | 38294 ft | 451 kts | 336° |
| 2026-04-21 20:38 | 33.25953 | -86.73456 | 38296 ft | 452 kts | 336° |
| 2026-04-21 20:39 | 33.31869 | -86.75867 | 38297 ft | 452 kts | 336° |
| 2026-04-21 20:39 | 33.37835 | -86.78302 | 38299 ft | 453 kts | 335° |
| 2026-04-21 20:40 | 33.43806 | -86.80742 | 38309 ft | 453 kts | 335° |
| 2026-04-21 20:40 | 33.49760 | -86.83179 | 38311 ft | 453 kts | 335° |
| 2026-04-21 20:41 | 33.55718 | -86.85622 | 38315 ft | 453 kts | 335° |
| 2026-04-21 20:41 | 33.61522 | -86.88393 | 38311 ft | 447 kts | 328° |
| 2026-04-21 20:42 | 33.66617 | -86.92488 | 38301 ft | 438 kts | 314° |
| 2026-04-21 20:42 | 33.70647 | -86.97883 | 38287 ft | 432 kts | 302° |
| 2026-04-21 20:43 | 33.73700 | -87.04112 | 38273 ft | 431 kts | 296° |
| 2026-04-21 20:43 | 33.76470 | -87.10486 | 38273 ft | 431 kts | 295° |
| 2026-04-21 20:44 | 33.79276 | -87.16851 | 38279 ft | 432 kts | 296° |
| 2026-04-21 20:44 | 33.82132 | -87.23226 | 38279 ft | 432 kts | 296° |
| 2026-04-21 20:45 | 33.84988 | -87.29577 | 38289 ft | 433 kts | 296° |
| 2026-04-21 20:45 | 33.87848 | -87.35944 | 38281 ft | 433 kts | 296° |
| 2026-04-21 20:46 | 33.90708 | -87.42326 | 38284 ft | 434 kts | 296° |
| 2026-04-21 20:46 | 33.93580 | -87.48752 | 38278 ft | 434 kts | 296° |
| 2026-04-21 20:47 | 33.96447 | -87.55161 | 38273 ft | 435 kts | 296° |
| 2026-04-21 20:47 | 33.99308 | -87.61554 | 38268 ft | 435 kts | 296° |
| 2026-04-21 20:48 | 34.02190 | -87.68005 | 38270 ft | 436 kts | 296° |
| 2026-04-21 20:48 | 34.05044 | -87.74441 | 38269 ft | 436 kts | 295° |
| 2026-04-21 20:49 | 34.07912 | -87.80926 | 38268 ft | 437 kts | 295° |
| 2026-04-21 20:49 | 34.10766 | -87.87384 | 38266 ft | 437 kts | 295° |
| 2026-04-21 20:50 | 34.13639 | -87.93891 | 38270 ft | 438 kts | 295° |
| 2026-04-21 20:50 | 34.16486 | -88.00353 | 38270 ft | 438 kts | 295° |
| 2026-04-21 20:51 | 34.19348 | -88.06859 | 38270 ft | 439 kts | 295° |
| 2026-04-21 20:51 | 34.22220 | -88.13401 | 38273 ft | 439 kts | 295° |
| 2026-04-21 20:52 | 34.25074 | -88.19915 | 38269 ft | 439 kts | 295° |
| 2026-04-21 20:52 | 34.27931 | -88.26447 | 38271 ft | 439 kts | 295° |
| 2026-04-21 20:53 | 34.30788 | -88.32994 | 38269 ft | 439 kts | 295° |
| 2026-04-21 20:53 | 34.33621 | -88.39495 | 38270 ft | 439 kts | 295° |
| 2026-04-21 20:54 | 34.36473 | -88.46054 | 38276 ft | 439 kts | 295° |
| 2026-04-21 20:54 | 34.39303 | -88.52575 | 38280 ft | 439 kts | 295° |
| 2026-04-21 20:55 | 34.42145 | -88.59153 | 38283 ft | 439 kts | 295° |
| 2026-04-21 20:55 | 34.44956 | -88.65714 | 38281 ft | 439 kts | 295° |
| 2026-04-21 20:56 | 34.47776 | -88.72277 | 38279 ft | 439 kts | 295° |
| 2026-04-21 20:56 | 34.50609 | -88.78859 | 38276 ft | 439 kts | 295° |
| 2026-04-21 20:57 | 34.53435 | -88.85432 | 38275 ft | 440 kts | 295° |
| 2026-04-21 20:57 | 34.56255 | -88.92005 | 38265 ft | 440 kts | 295° |
| 2026-04-21 20:58 | 34.59070 | -88.98578 | 38259 ft | 441 kts | 295° |
| 2026-04-21 20:58 | 34.61903 | -89.05207 | 38256 ft | 441 kts | 295° |
| 2026-04-21 20:59 | 34.64717 | -89.11805 | 38255 ft | 442 kts | 295° |
| 2026-04-21 20:59 | 34.67544 | -89.18446 | 38254 ft | 442 kts | 295° |
| 2026-04-21 21:00 | 34.70370 | -89.25097 | 38253 ft | 442 kts | 295° |
| 2026-04-21 21:00 | 34.73185 | -89.31735 | 38235 ft | 442 kts | 295° |
| 2026-04-21 21:01 | 34.75991 | -89.38365 | 38254 ft | 442 kts | 295° |
| 2026-04-21 21:01 | 34.78807 | -89.45031 | 38259 ft | 442 kts | 295° |
| 2026-04-21 21:02 | 34.81580 | -89.51656 | 38257 ft | 441 kts | 295° |
| 2026-04-21 21:02 | 34.84361 | -89.58317 | 38262 ft | 440 kts | 295° |
| 2026-04-21 21:03 | 34.87147 | -89.64967 | 38254 ft | 440 kts | 295° |
| 2026-04-21 21:03 | 34.89908 | -89.71557 | 38254 ft | 440 kts | 296° |
| 2026-04-21 21:04 | 34.92681 | -89.78186 | 38251 ft | 439 kts | 295° |
| 2026-04-21 21:04 | 34.95449 | -89.84817 | 38275 ft | 439 kts | 295° |
| 2026-04-21 21:05 | 34.98205 | -89.91432 | 38237 ft | 439 kts | 295° |
| 2026-04-21 21:05 | 35.00963 | -89.98067 | 38243 ft | 439 kts | 295° |
| 2026-04-21 21:06 | 35.03735 | -90.04748 | 38244 ft | 439 kts | 295° |
| 2026-04-21 21:06 | 35.06291 | -90.11505 | 38244 ft | 439 kts | 291° |
| 2026-04-21 21:07 | 35.08488 | -90.18475 | 38214 ft | 439 kts | 289° |
| 2026-04-21 21:07 | 35.10627 | -90.25422 | 38219 ft | 439 kts | 289° |
| 2026-04-21 21:08 | 35.12802 | -90.32408 | 38224 ft | 440 kts | 290° |
| 2026-04-21 21:08 | 35.14986 | -90.39390 | 38223 ft | 440 kts | 290° |
| 2026-04-21 21:09 | 35.17165 | -90.46360 | 38221 ft | 440 kts | 290° |
| 2026-04-21 21:09 | 35.19359 | -90.53395 | 38227 ft | 441 kts | 290° |
| 2026-04-21 21:10 | 35.21169 | -90.59212 | 38227 ft | 441 kts | 290° |
| 2026-04-21 21:10 | 35.23341 | -90.66209 | 38227 ft | 441 kts | 290° |
| 2026-04-21 21:11 | 35.25516 | -90.73235 | 38227 ft | 442 kts | 290° |
| 2026-04-21 21:11 | 35.27693 | -90.80283 | 38224 ft | 442 kts | 290° |
| 2026-04-21 21:12 | 35.29851 | -90.87285 | 38227 ft | 442 kts | 290° |
| 2026-04-21 21:12 | 35.32018 | -90.94333 | 38233 ft | 442 kts | 290° |
| 2026-04-21 21:13 | 35.34170 | -91.01349 | 38235 ft | 442 kts | 290° |
| 2026-04-21 21:13 | 35.36311 | -91.08419 | 38242 ft | 442 kts | 289° |
| 2026-04-21 21:14 | 35.38449 | -91.15494 | 38246 ft | 442 kts | 290° |
| 2026-04-21 21:14 | 35.40591 | -91.22553 | 38243 ft | 442 kts | 290° |
| 2026-04-21 21:15 | 35.42739 | -91.29627 | 38243 ft | 442 kts | 290° |
| 2026-04-21 21:15 | 35.44882 | -91.36697 | 38244 ft | 442 kts | 290° |
| 2026-04-21 21:16 | 35.47024 | -91.43784 | 38234 ft | 442 kts | 290° |
| 2026-04-21 21:16 | 35.49164 | -91.50884 | 38230 ft | 442 kts | 290° |
| 2026-04-21 21:17 | 35.51282 | -91.57926 | 38227 ft | 442 kts | 290° |
| 2026-04-21 21:17 | 35.53407 | -91.65013 | 38221 ft | 443 kts | 290° |
| 2026-04-21 21:18 | 35.55536 | -91.72128 | 38225 ft | 443 kts | 290° |
| 2026-04-21 21:18 | 35.57647 | -91.79202 | 38223 ft | 443 kts | 289° |
| 2026-04-21 21:19 | 35.59766 | -91.86317 | 38222 ft | 443 kts | 289° |
| 2026-04-21 21:19 | 35.61877 | -91.93428 | 38219 ft | 443 kts | 289° |
| 2026-04-21 21:20 | 35.63984 | -92.00562 | 38222 ft | 444 kts | 289° |
| 2026-04-21 21:20 | 35.66071 | -92.07719 | 38223 ft | 444 kts | 289° |
| 2026-04-21 21:21 | 35.68164 | -92.14867 | 38212 ft | 444 kts | 289° |
| 2026-04-21 21:21 | 35.70264 | -92.22019 | 38212 ft | 445 kts | 289° |
| 2026-04-21 21:22 | 35.72353 | -92.29143 | 38213 ft | 446 kts | 289° |
| 2026-04-21 21:22 | 35.74464 | -92.36358 | 38214 ft | 447 kts | 289° |
| 2026-04-21 21:23 | 35.76571 | -92.43581 | 38208 ft | 447 kts | 289° |
| 2026-04-21 21:23 | 35.78669 | -92.50792 | 38209 ft | 448 kts | 289° |
| 2026-04-21 21:24 | 35.80765 | -92.58011 | 38208 ft | 449 kts | 289° |
| 2026-04-21 21:24 | 35.82864 | -92.65263 | 38201 ft | 450 kts | 289° |
| 2026-04-21 21:25 | 35.84956 | -92.72510 | 38192 ft | 451 kts | 289° |
| 2026-04-21 21:25 | 35.87054 | -92.79796 | 38197 ft | 451 kts | 289° |
| 2026-04-21 21:26 | 35.89150 | -92.87095 | 38194 ft | 452 kts | 289° |
| 2026-04-21 21:26 | 35.91238 | -92.94386 | 38192 ft | 452 kts | 289° |
| 2026-04-21 21:27 | 35.93310 | -93.01728 | 38188 ft | 452 kts | 289° |
| 2026-04-21 21:27 | 35.95374 | -93.09043 | 38186 ft | 453 kts | 289° |
| 2026-04-21 21:28 | 35.97457 | -93.16392 | 38188 ft | 453 kts | 289° |
| 2026-04-21 21:29 | 36.00577 | -93.27407 | 38184 ft | 453 kts | 289° |
| 2026-04-21 21:29 | 36.02664 | -93.34797 | 38185 ft | 453 kts | 290° |
| 2026-04-21 21:30 | 36.04729 | -93.42133 | 38189 ft | 453 kts | 290° |
| 2026-04-21 21:30 | 36.06792 | -93.49484 | 38188 ft | 454 kts | 290° |
| 2026-04-21 21:31 | 36.08861 | -93.56872 | 38189 ft | 454 kts | 290° |
| 2026-04-21 21:31 | 36.10926 | -93.64268 | 38186 ft | 454 kts | 290° |
| 2026-04-21 21:32 | 36.12979 | -93.71642 | 38190 ft | 455 kts | 290° |
| 2026-04-21 21:32 | 36.15029 | -93.79024 | 38201 ft | 456 kts | 290° |
| 2026-04-21 21:33 | 36.17084 | -93.86447 | 38211 ft | 456 kts | 290° |
| 2026-04-21 21:33 | 36.19141 | -93.93918 | 38211 ft | 457 kts | 290° |
| 2026-04-21 21:34 | 36.21157 | -94.01342 | 38218 ft | 458 kts | 290° |
| 2026-04-21 21:34 | 36.23206 | -94.08857 | 38216 ft | 458 kts | 290° |
| 2026-04-21 21:35 | 36.25247 | -94.16319 | 38217 ft | 459 kts | 291° |
| 2026-04-21 21:35 | 36.27015 | -94.23958 | 38217 ft | 461 kts | 285° |
| 2026-04-21 21:36 | 36.28373 | -94.31743 | 38205 ft | 462 kts | 284° |
| 2026-04-21 21:36 | 36.29682 | -94.39506 | 38218 ft | 463 kts | 284° |
| 2026-04-21 21:37 | 36.31030 | -94.47342 | 38214 ft | 463 kts | 285° |
| 2026-04-21 21:37 | 36.32379 | -94.55112 | 38214 ft | 464 kts | 285° |
| 2026-04-21 21:38 | 36.33733 | -94.62919 | 38207 ft | 464 kts | 285° |
| 2026-04-21 21:38 | 36.35089 | -94.70779 | 38219 ft | 465 kts | 285° |
| 2026-04-21 21:39 | 36.36435 | -94.78611 | 38193 ft | 465 kts | 285° |
| 2026-04-21 21:39 | 36.37773 | -94.86437 | 38182 ft | 466 kts | 285° |
| 2026-04-21 21:40 | 36.39115 | -94.94311 | 38192 ft | 466 kts | 285° |
| 2026-04-21 21:40 | 36.40453 | -95.02201 | 38186 ft | 467 kts | 285° |
| 2026-04-21 21:41 | 36.41786 | -95.10094 | 38190 ft | 468 kts | 285° |
| 2026-04-21 21:41 | 36.43113 | -95.17985 | 38188 ft | 468 kts | 285° |
| 2026-04-21 21:42 | 36.44426 | -95.25962 | 38187 ft | 469 kts | 284° |
| 2026-04-21 21:42 | 36.45719 | -95.33856 | 38185 ft | 470 kts | 284° |
| 2026-04-21 21:43 | 36.47034 | -95.41815 | 38183 ft | 471 kts | 284° |
| 2026-04-21 21:43 | 36.48357 | -95.49816 | 38182 ft | 472 kts | 284° |
| 2026-04-21 21:44 | 36.49672 | -95.57803 | 38181 ft | 472 kts | 284° |
| 2026-04-21 21:44 | 36.50988 | -95.65834 | 38171 ft | 473 kts | 284° |
| 2026-04-21 21:45 | 36.52288 | -95.73804 | 38162 ft | 474 kts | 284° |
| 2026-04-21 21:45 | 36.53590 | -95.81826 | 38158 ft | 474 kts | 284° |
| 2026-04-21 21:46 | 36.54892 | -95.89879 | 38151 ft | 475 kts | 284° |
| 2026-04-21 21:46 | 36.56197 | -95.97986 | 38155 ft | 476 kts | 284° |
| 2026-04-21 21:47 | 36.57486 | -96.06039 | 38150 ft | 476 kts | 284° |
| 2026-04-21 21:47 | 36.58771 | -96.14095 | 38148 ft | 477 kts | 284° |
| 2026-04-21 21:48 | 36.60061 | -96.22244 | 38151 ft | 477 kts | 284° |
| 2026-04-21 21:48 | 36.61308 | -96.30327 | 38142 ft | 478 kts | 284° |
| 2026-04-21 21:49 | 36.62576 | -96.38493 | 38135 ft | 478 kts | 284° |
| 2026-04-21 21:49 | 36.63847 | -96.46629 | 38128 ft | 478 kts | 284° |
| 2026-04-21 21:50 | 36.65113 | -96.54752 | 38124 ft | 479 kts | 284° |
| 2026-04-21 21:50 | 36.66374 | -96.62882 | 38127 ft | 479 kts | 284° |
| 2026-04-21 21:51 | 36.67637 | -96.71064 | 38112 ft | 479 kts | 284° |
| 2026-04-21 21:51 | 36.68882 | -96.79175 | 38118 ft | 480 kts | 283° |
| 2026-04-21 21:52 | 36.70133 | -96.87356 | 38113 ft | 480 kts | 283° |
| 2026-04-21 21:52 | 36.71373 | -96.95505 | 38110 ft | 480 kts | 283° |
| 2026-04-21 21:53 | 36.72618 | -97.03732 | 38113 ft | 480 kts | 283° |
| 2026-04-21 21:53 | 36.73904 | -97.11842 | 38103 ft | 478 kts | 288° |
| 2026-04-21 21:54 | 36.76161 | -97.19589 | 38107 ft | 475 kts | 296° |
| 2026-04-21 21:54 | 36.78864 | -97.27080 | 38109 ft | 474 kts | 297° |
| 2026-04-21 21:55 | 36.81554 | -97.34580 | 38108 ft | 474 kts | 297° |
| 2026-04-21 21:55 | 36.83758 | -97.40887 | 38109 ft | 474 kts | 296° |
| 2026-04-21 21:56 | 36.86376 | -97.48474 | 38099 ft | 475 kts | 296° |
| 2026-04-21 21:56 | 36.88969 | -97.56018 | 38091 ft | 474 kts | 296° |
| 2026-04-21 21:57 | 36.91571 | -97.63602 | 38079 ft | 474 kts | 296° |
| 2026-04-21 21:57 | 36.94166 | -97.71181 | 38061 ft | 474 kts | 296° |
| 2026-04-21 21:58 | 36.96752 | -97.78752 | 38059 ft | 474 kts | 296° |
| 2026-04-21 21:58 | 36.99349 | -97.86376 | 38060 ft | 474 kts | 296° |
| 2026-04-21 21:59 | 37.01922 | -97.93945 | 38059 ft | 474 kts | 296° |
| 2026-04-21 21:59 | 37.04498 | -98.01546 | 38060 ft | 474 kts | 296° |
| 2026-04-21 22:00 | 37.07066 | -98.09161 | 38063 ft | 475 kts | 296° |
| 2026-04-21 22:00 | 37.09608 | -98.16789 | 38063 ft | 475 kts | 296° |
| 2026-04-21 22:01 | 37.12156 | -98.24410 | 38056 ft | 475 kts | 296° |
| 2026-04-21 22:01 | 37.14717 | -98.32051 | 38049 ft | 474 kts | 296° |
| 2026-04-21 22:02 | 37.17257 | -98.39641 | 38037 ft | 475 kts | 296° |
| 2026-04-21 22:02 | 37.19808 | -98.47286 | 38022 ft | 475 kts | 296° |
| 2026-04-21 22:03 | 37.22349 | -98.54916 | 38008 ft | 474 kts | 296° |
| 2026-04-21 22:03 | 37.24895 | -98.62585 | 38004 ft | 475 kts | 295° |
| 2026-04-21 22:04 | 37.27427 | -98.70228 | 37999 ft | 474 kts | 295° |
| 2026-04-21 22:04 | 37.29951 | -98.77869 | 38001 ft | 475 kts | 295° |
| 2026-04-21 22:05 | 37.32468 | -98.85513 | 37996 ft | 474 kts | 295° |
| 2026-04-21 22:05 | 37.34989 | -98.93191 | 37988 ft | 474 kts | 295° |
| 2026-04-21 22:06 | 37.37497 | -99.00844 | 37988 ft | 474 kts | 295° |
| 2026-04-21 22:06 | 37.39984 | -99.08510 | 37986 ft | 473 kts | 295° |
| 2026-04-21 22:07 | 37.42463 | -99.16197 | 37981 ft | 473 kts | 295° |
| 2026-04-21 22:07 | 37.44928 | -99.23807 | 37980 ft | 472 kts | 295° |
| 2026-04-21 22:08 | 37.47424 | -99.31506 | 37974 ft | 472 kts | 295° |
| 2026-04-21 22:08 | 37.49892 | -99.39138 | 37972 ft | 471 kts | 295° |
| 2026-04-21 22:09 | 37.52361 | -99.46794 | 37969 ft | 471 kts | 295° |
| 2026-04-21 22:09 | 37.54805 | -99.54398 | 37969 ft | 471 kts | 294° |
| 2026-04-21 22:10 | 37.57273 | -99.62092 | 37965 ft | 470 kts | 294° |
| 2026-04-21 22:10 | 37.59718 | -99.69733 | 37977 ft | 470 kts | 294° |
| 2026-04-21 22:11 | 37.62154 | -99.77366 | 37985 ft | 469 kts | 294° |
| 2026-04-21 22:11 | 37.64583 | -99.85003 | 37996 ft | 469 kts | 294° |
| 2026-04-21 22:12 | 37.67000 | -99.92620 | 38006 ft | 469 kts | 294° |
| 2026-04-21 22:12 | 37.69424 | -100.00281 | 38006 ft | 468 kts | 294° |
| 2026-04-21 22:13 | 37.71806 | -100.07911 | 38003 ft | 468 kts | 294° |
| 2026-04-21 22:13 | 37.74191 | -100.15559 | 37994 ft | 468 kts | 294° |
| 2026-04-21 22:14 | 37.76590 | -100.23220 | 37979 ft | 467 kts | 294° |
| 2026-04-21 22:14 | 37.78969 | -100.30819 | 37957 ft | 467 kts | 293° |
| 2026-04-21 22:15 | 37.81369 | -100.38501 | 37941 ft | 466 kts | 293° |
| 2026-04-21 22:15 | 37.83728 | -100.46077 | 37951 ft | 466 kts | 293° |
| 2026-04-21 22:16 | 37.86102 | -100.53724 | 37964 ft | 466 kts | 293° |
| 2026-04-21 22:16 | 37.88469 | -100.61367 | 37979 ft | 466 kts | 293° |
| 2026-04-21 22:17 | 37.90824 | -100.68990 | 37981 ft | 465 kts | 292° |
| 2026-04-21 22:17 | 37.93366 | -100.76503 | 37982 ft | 464 kts | 296° |
| 2026-04-21 22:18 | 37.96189 | -100.83877 | 37979 ft | 463 kts | 297° |
| 2026-04-21 22:18 | 37.99022 | -100.91168 | 37956 ft | 464 kts | 297° |
| 2026-04-21 22:19 | 38.01851 | -100.98520 | 37937 ft | 463 kts | 297° |
| 2026-04-21 22:19 | 38.04656 | -101.05862 | 37916 ft | 462 kts | 296° |
| 2026-04-21 22:20 | 38.07455 | -101.13217 | 37894 ft | 462 kts | 296° |
| 2026-04-21 22:20 | 38.10241 | -101.20550 | 37891 ft | 461 kts | 296° |
| 2026-04-21 22:21 | 38.13016 | -101.27871 | 37886 ft | 461 kts | 296° |
| 2026-04-21 22:21 | 38.15807 | -101.35252 | 37884 ft | 461 kts | 296° |
| 2026-04-21 22:22 | 38.18625 | -101.42518 | 37877 ft | 460 kts | 299° |
| 2026-04-21 22:22 | 38.21932 | -101.49491 | 37880 ft | 459 kts | 302° |
| 2026-04-21 22:23 | 38.25400 | -101.56335 | 37877 ft | 459 kts | 303° |
| 2026-04-21 22:23 | 38.28837 | -101.63158 | 37874 ft | 458 kts | 302° |
| 2026-04-21 22:24 | 38.32252 | -101.70012 | 37874 ft | 458 kts | 302° |
| 2026-04-21 22:24 | 38.35647 | -101.76862 | 37867 ft | 458 kts | 302° |
| 2026-04-21 22:25 | 38.39039 | -101.83720 | 37869 ft | 458 kts | 302° |
| 2026-04-21 22:25 | 38.42420 | -101.90570 | 37866 ft | 457 kts | 301° |
| 2026-04-21 22:26 | 38.45815 | -101.97464 | 37864 ft | 457 kts | 301° |
| 2026-04-21 22:26 | 38.49192 | -102.04334 | 37868 ft | 457 kts | 301° |
| 2026-04-21 22:27 | 38.52574 | -102.11229 | 37868 ft | 457 kts | 301° |
| 2026-04-21 22:27 | 38.55946 | -102.18120 | 37863 ft | 458 kts | 301° |
| 2026-04-21 22:28 | 38.59299 | -102.25028 | 37862 ft | 457 kts | 301° |
| 2026-04-21 22:28 | 38.62640 | -102.31922 | 37866 ft | 457 kts | 301° |
| 2026-04-21 22:29 | 38.65973 | -102.38787 | 37867 ft | 457 kts | 301° |
| 2026-04-21 22:29 | 38.69326 | -102.45693 | 37873 ft | 457 kts | 301° |
| 2026-04-21 22:30 | 38.72694 | -102.52644 | 37874 ft | 457 kts | 301° |
| 2026-04-21 22:30 | 38.76032 | -102.59550 | 37809 ft | 458 kts | 301° |
| 2026-04-21 22:30 | 38.77698 | -102.63003 | 37413 ft | 457 kts | 301° |
| 2026-04-21 22:31 | 38.79377 | -102.66485 | 36873 ft | 459 kts | 301° |
| 2026-04-21 22:31 | 38.81046 | -102.69951 | 36301 ft | 459 kts | 301° |
| 2026-04-21 22:31 | 38.82740 | -102.73473 | 35760 ft | 460 kts | 301° |
| 2026-04-21 22:31 | 38.84409 | -102.76946 | 35239 ft | 462 kts | 301° |
| 2026-04-21 22:32 | 38.86089 | -102.80447 | 34710 ft | 463 kts | 301° |
| 2026-04-21 22:32 | 38.87773 | -102.83960 | 34187 ft | 464 kts | 301° |
| 2026-04-21 22:32 | 38.89469 | -102.87501 | 33625 ft | 466 kts | 301° |
| 2026-04-21 22:32 | 38.91186 | -102.91090 | 33059 ft | 467 kts | 301° |
| 2026-04-21 22:33 | 38.92892 | -102.94660 | 32472 ft | 469 kts | 301° |
| 2026-04-21 22:33 | 38.94573 | -102.98183 | 31932 ft | 470 kts | 301° |
| 2026-04-21 22:33 | 38.96287 | -103.01769 | 31388 ft | 472 kts | 301° |
| 2026-04-21 22:33 | 38.98011 | -103.05362 | 30847 ft | 474 kts | 301° |
| 2026-04-21 22:34 | 38.99750 | -103.08974 | 30286 ft | 475 kts | 301° |
| 2026-04-21 22:34 | 39.01489 | -103.12576 | 29671 ft | 474 kts | 301° |
| 2026-04-21 22:34 | 39.03241 | -103.16201 | 29055 ft | 470 kts | 301° |
| 2026-04-21 22:34 | 39.04947 | -103.19752 | 28473 ft | 466 kts | 301° |
| 2026-04-21 22:35 | 39.06637 | -103.23297 | 27878 ft | 462 kts | 301° |
| 2026-04-21 22:35 | 39.08302 | -103.26804 | 27312 ft | 458 kts | 301° |
| 2026-04-21 22:35 | 39.09937 | -103.30254 | 26733 ft | 454 kts | 301° |
| 2026-04-21 22:35 | 39.11584 | -103.33732 | 26178 ft | 450 kts | 300° |
| 2026-04-21 22:36 | 39.14819 | -103.40568 | 25080 ft | 443 kts | 300° |
| 2026-04-21 22:36 | 39.16409 | -103.43931 | 24539 ft | 439 kts | 300° |
| 2026-04-21 22:36 | 39.17983 | -103.47265 | 24007 ft | 436 kts | 300° |
| 2026-04-21 22:37 | 39.19555 | -103.50598 | 23446 ft | 432 kts | 300° |
| 2026-04-21 22:37 | 39.21106 | -103.53908 | 22865 ft | 428 kts | 300° |
| 2026-04-21 22:37 | 39.22621 | -103.57149 | 22497 ft | 424 kts | 300° |
| 2026-04-21 22:37 | 39.24140 | -103.60401 | 22311 ft | 420 kts | 300° |
| 2026-04-21 22:38 | 39.25607 | -103.63541 | 22196 ft | 394 kts | 300° |
| 2026-04-21 22:38 | 39.26986 | -103.66489 | 22090 ft | 382 kts | 300° |
| 2026-04-21 22:38 | 39.28411 | -103.69402 | 22008 ft | 379 kts | 302° |
| 2026-04-21 22:38 | 39.29368 | -103.71265 | 21990 ft | 379 kts | 302° |
| 2026-04-21 22:39 | 39.31335 | -103.75009 | 21875 ft | 378 kts | 303° |
| 2026-04-21 22:39 | 39.32821 | -103.77815 | 21790 ft | 377 kts | 303° |
| 2026-04-21 22:39 | 39.33809 | -103.79679 | 21473 ft | 379 kts | 303° |
| 2026-04-21 22:39 | 39.35772 | -103.83392 | 20632 ft | 372 kts | 303° |
| 2026-04-21 22:40 | 39.36745 | -103.85233 | 20246 ft | 369 kts | 302° |
| 2026-04-21 22:40 | 39.38187 | -103.87971 | 19730 ft | 365 kts | 302° |
| 2026-04-21 22:40 | 39.39597 | -103.90652 | 19387 ft | 363 kts | 302° |
| 2026-04-21 22:40 | 39.41006 | -103.93334 | 19207 ft | 355 kts | 302° |
| 2026-04-21 22:41 | 39.42348 | -103.95888 | 19088 ft | 334 kts | 302° |
| 2026-04-21 22:41 | 39.43643 | -103.98345 | 18942 ft | 324 kts | 303° |
| 2026-04-21 22:41 | 39.44943 | -104.00700 | 18878 ft | 319 kts | 304° |
| 2026-04-21 22:41 | 39.46249 | -104.02993 | 18791 ft | 320 kts | 304° |
| 2026-04-21 22:42 | 39.47585 | -104.05314 | 18660 ft | 319 kts | 304° |
| 2026-04-21 22:42 | 39.48910 | -104.07611 | 18561 ft | 318 kts | 304° |
| 2026-04-21 22:42 | 39.50237 | -104.09913 | 18379 ft | 319 kts | 304° |
| 2026-04-21 22:42 | 39.51560 | -104.12207 | 17754 ft | 315 kts | 304° |
| 2026-04-21 22:43 | 39.52862 | -104.14465 | 17263 ft | 311 kts | 304° |
| 2026-04-21 22:43 | 39.54155 | -104.16712 | 16961 ft | 312 kts | 304° |
| 2026-04-21 22:43 | 39.55463 | -104.18967 | 16806 ft | 312 kts | 305° |
| 2026-04-21 22:43 | 39.56774 | -104.21162 | 16762 ft | 312 kts | 306° |
| 2026-04-21 22:44 | 39.58114 | -104.23379 | 16723 ft | 312 kts | 306° |
| 2026-04-21 22:44 | 39.59459 | -104.25597 | 16676 ft | 312 kts | 306° |
| 2026-04-21 22:44 | 39.60789 | -104.27790 | 16630 ft | 312 kts | 306° |
| 2026-04-21 22:44 | 39.62145 | -104.30027 | 16549 ft | 313 kts | 306° |
| 2026-04-21 22:45 | 39.63490 | -104.32245 | 16515 ft | 312 kts | 306° |
| 2026-04-21 22:45 | 39.64825 | -104.34451 | 16472 ft | 311 kts | 306° |
| 2026-04-21 22:45 | 39.66157 | -104.36653 | 16425 ft | 311 kts | 306° |
| 2026-04-21 22:45 | 39.67454 | -104.38793 | 16351 ft | 293 kts | 306° |
| 2026-04-21 22:46 | 39.68729 | -104.40902 | 16125 ft | 305 kts | 306° |
| 2026-04-21 22:46 | 39.70046 | -104.43090 | 15718 ft | 308 kts | 306° |
| 2026-04-21 22:46 | 39.71358 | -104.45267 | 15254 ft | 309 kts | 306° |
| 2026-04-21 22:46 | 39.72774 | -104.47350 | 14755 ft | 308 kts | 317° |
| 2026-04-21 22:47 | 39.74621 | -104.48764 | 14251 ft | 309 kts | 336° |
| 2026-04-21 22:47 | 39.76659 | -104.49631 | 13729 ft | 309 kts | 342° |
| 2026-04-21 22:47 | 39.78737 | -104.50343 | 13252 ft | 306 kts | 343° |
| 2026-04-21 22:47 | 39.80801 | -104.51021 | 12873 ft | 306 kts | 344° |
| 2026-04-21 22:48 | 39.82832 | -104.51695 | 12509 ft | 304 kts | 344° |
| 2026-04-21 22:48 | 39.84912 | -104.52220 | 12158 ft | 303 kts | 353° |
| 2026-04-21 22:48 | 39.87026 | -104.52332 | 12063 ft | 303 kts | 358° |
| 2026-04-21 22:48 | 39.89127 | -104.52321 | 12034 ft | 304 kts | 359° |
| 2026-04-21 22:49 | 39.91226 | -104.52284 | 11970 ft | 303 kts | 359° |
| 2026-04-21 22:49 | 39.93345 | -104.52290 | 11966 ft | 303 kts | 356° |
| 2026-04-21 22:49 | 39.95437 | -104.52433 | 11962 ft | 302 kts | 354° |
| 2026-04-21 22:49 | 39.97551 | -104.52629 | 11937 ft | 302 kts | 353° |
| 2026-04-21 22:50 | 39.99638 | -104.52837 | 11937 ft | 302 kts | 353° |
| 2026-04-21 22:50 | 40.01742 | -104.53050 | 11914 ft | 301 kts | 354° |
| 2026-04-21 22:50 | 40.03827 | -104.53259 | 11907 ft | 301 kts | 353° |
| 2026-04-21 22:50 | 40.05909 | -104.53469 | 11897 ft | 301 kts | 354° |
| 2026-04-21 22:51 | 40.07998 | -104.53679 | 11887 ft | 301 kts | 354° |
| 2026-04-21 22:51 | 40.10082 | -104.53888 | 11860 ft | 300 kts | 354° |
| 2026-04-21 22:51 | 40.12147 | -104.54095 | 11853 ft | 301 kts | 354° |
| 2026-04-21 22:51 | 40.14253 | -104.54307 | 11841 ft | 301 kts | 354° |
| 2026-04-21 22:52 | 40.16336 | -104.54516 | 11822 ft | 300 kts | 354° |
| 2026-04-21 22:52 | 40.18376 | -104.54870 | 11672 ft | 301 kts | 342° |
| 2026-04-21 22:52 | 40.20183 | -104.56140 | 11293 ft | 294 kts | 317° |
| 2026-04-21 22:52 | 40.21368 | -104.58242 | 10948 ft | 292 kts | 292° |
| 2026-04-21 22:53 | 40.21746 | -104.60779 | 10604 ft | 271 kts | 266° |
| 2026-04-21 22:53 | 40.21307 | -104.62998 | 10519 ft | 245 kts | 248° |
| 2026-04-21 22:53 | 40.20719 | -104.65035 | 10513 ft | 236 kts | 251° |
| 2026-04-21 22:53 | 40.20056 | -104.66977 | 10363 ft | 234 kts | 240° |
| 2026-04-21 22:54 | 40.19002 | -104.68587 | 10055 ft | 234 kts | 213° |
| 2026-04-21 22:54 | 40.17452 | -104.69143 | 9903 ft | 235 kts | 179° |
| 2026-04-21 22:54 | 40.15816 | -104.68942 | 9864 ft | 236 kts | 173° |
| 2026-04-21 22:54 | 40.14195 | -104.68681 | 9771 ft | 237 kts | 174° |
| 2026-04-21 22:55 | 40.12572 | -104.68491 | 9465 ft | 227 kts | 176° |
| 2026-04-21 22:55 | 40.11003 | -104.68406 | 9199 ft | 223 kts | 179° |
| 2026-04-21 22:55 | 40.09457 | -104.68415 | 8921 ft | 221 kts | 180° |
| 2026-04-21 22:55 | 40.07935 | -104.68439 | 8668 ft | 221 kts | 180° |
| 2026-04-21 22:56 | 40.06393 | -104.68462 | 8378 ft | 220 kts | 180° |
| 2026-04-21 22:56 | 40.04892 | -104.68483 | 8126 ft | 208 kts | 180° |
| 2026-04-21 22:56 | 40.03503 | -104.68499 | 7878 ft | 197 kts | 180° |
| 2026-04-21 22:56 | 40.02139 | -104.68519 | 7647 ft | 195 kts | 179° |
| 2026-04-21 22:57 | 40.00795 | -104.68536 | 7398 ft | 193 kts | 179° |
| 2026-04-21 22:57 | 39.99453 | -104.68553 | 7190 ft | 193 kts | 179° |
| 2026-04-21 22:57 | 39.98119 | -104.68571 | 6944 ft | 180 kts | 178° |
| 2026-04-21 22:57 | 39.96894 | -104.68588 | 6768 ft | 176 kts | 179° |
| 2026-04-21 22:58 | 39.95676 | -104.68602 | 6545 ft | 173 kts | 178° |
| 2026-04-21 22:58 | 39.94480 | -104.68615 | 6358 ft | 173 kts | 179° |
| 2026-04-21 22:58 | 39.93263 | -104.68633 | 6121 ft | 172 kts | 178° |
| 2026-04-21 22:58 | 39.92074 | -104.68646 | 5929 ft | 171 kts | 178° |
| 2026-04-21 22:59 | 39.90902 | -104.68667 | 5656 ft | 169 kts | 178° |
| 2026-04-21 22:59 | 39.89718 | -104.68690 | 5425 ft | 168 kts | 178° |
| 2026-04-21 22:59 | 39.88669 | -104.68688 | 5364 ft | 127 kts | 180° |
| 2026-04-21 22:59 | 39.87968 | -104.68707 | 5371 ft | 77 kts | 179° |
| 2026-04-21 23:00 | 39.87550 | -104.68699 | 5368 ft | 45 kts | 177° |
| 2026-04-21 23:00 | 39.87290 | -104.68619 | 5363 ft | 37 kts | 153° |
| 2026-04-21 23:00 | 39.87081 | -104.68505 | 5367 ft | 24 kts | 167° |
| 2026-04-21 23:00 | 39.86920 | -104.68492 | 5367 ft | 25 kts | 179° |
| 2026-04-21 23:01 | 39.86742 | -104.68497 | 5370 ft | 27 kts | 183° |
| 2026-04-21 23:01 | 39.86544 | -104.68508 | 5371 ft | 30 kts | 181° |
| 2026-04-21 23:01 | 39.86323 | -104.68512 | 5372 ft | 33 kts | 179° |
| 2026-04-21 23:01 | 39.86076 | -104.68512 | 5370 ft | 38 kts | 180° |
| 2026-04-21 23:02 | 39.85805 | -104.68514 | 5373 ft | 39 kts | 181° |
| 2026-04-21 23:02 | 39.85696 | -104.68492 | 5376 ft | 6 kts | 126° |
| 2026-04-21 23:02 | 39.85687 | -104.68420 | 5377 ft | 12 kts | 96° |
| 2026-04-21 23:02 | 39.85678 | -104.68282 | 5390 ft | 18 kts | 95° |
| 2026-04-21 23:03 | 39.85667 | -104.68075 | 5394 ft | 29 kts | 94° |
| 2026-04-21 23:03 | 39.85664 | -104.67765 | 5387 ft | 36 kts | 90° |
| 2026-04-21 23:03 | 39.85666 | -104.67497 | 5394 ft | 24 kts | 89° |
| 2026-04-21 23:03 | 39.85669 | -104.67328 | 5392 ft | 11 kts | 76° |
| 2026-04-21 23:04 | 39.85709 | -104.67289 | 5391 ft | 9 kts | 12° |
| 2026-04-21 23:04 | 39.85777 | -104.67285 | 5392 ft | 10 kts | 0° |
| 2026-04-21 23:04 | 39.85807 | -104.67285 | 5393 ft | 0 kts | 359° |